Latest Weather Observations for Wilcannia Airport

IDN60801

Issued at 2:02 pm EDT Saturday 17 November 2018 (issued every 10 minutes, with the page automatically refreshed every 10 minutes)

About weather observations | Map of weather stations | Latest weather observations for NSW | Other Formats
Station Details ID: 046012 Name: WILCANNIA AERODROME AWS Lat: -31.52 Lon: 143.38 Height: 94.3 m
Data from the previous 72 hours. | See also: Recent months at Wilcannia Airport
Date/Time
EDT
Temp
°C
App
Temp
°C
Dew
Point
°C
Rel
Hum
%
Delta-T
°C
Wind Press
QNH
hPa
Press
MSL
hPa
Rain since
9am
mm
Dir  Spd
km/h
Gust
km/h
Spd
kts
Gust
kts
17/02:00pm 29.7 24.4 -3.9 11 15.0 SW 15 30 8 16 1016.7 1016.3 0.0
17/01:30pm 30.5 23.9 -3.3 11 15.4 S 22 33 12 18 1017.0 1016.6 0.0
17/01:00pm 29.8 25.0 -2.6 12 14.8 SSE 13 24 7 13 1017.3 1016.9 0.0
17/12:30pm 29.7 24.1 -2.7 12 14.8 S 17 26 9 14 1017.6 1017.2 0.0
17/12:00pm 29.8 25.5 -1.5 13 14.6 S 11 20 6 11 1017.9 1017.5 0.0
17/11:30am 28.1 22.9 -2.9 13 13.9 SSE 15 28 8 15 1018.2 1017.8 0.0
17/11:00am 27.7 22.9 -2.2 14 13.5 SE 13 20 7 11 1018.2 1017.8 0.0
17/10:30am 26.6 21.1 -2.1 15 12.9 SSE 17 24 9 13 1018.2 1017.8 0.0
17/10:00am 25.3 20.2 -2.3 16 12.2 SSE 15 22 8 12 1018.3 1017.9 0.0
17/09:30am 23.5 18.2 -0.7 20 10.9 S 17 24 9 13 1018.3 1017.9 0.0
17/09:00am 22.0 16.8 -0.1 23 9.9 S 17 24 9 13 1018.3 1017.9 0.0
17/08:30am 20.7 15.5 0.0 25 9.2 SSW 17 22 9 12 1018.2 1017.8 0.0
17/08:00am 19.0 13.4 0.1 28 8.3 SSW 19 22 10 12 1018.1 1017.7 0.0
17/07:30am 17.6 12.7 -0.6 29 7.8 SW 15 20 8 11 1018.0 1017.6 0.0
17/07:00am 15.7 11.1 -0.9 32 6.9 SW 13 15 7 8 1017.6 1017.2 0.0
17/06:30am 14.4 9.7 -1.6 33 6.5 SW 13 15 7 8 1017.1 1016.7 0.0
17/06:00am 14.8 9.7 -1.7 32 6.7 SW 15 17 8 9 1016.7 1016.3 0.0
17/05:30am 15.5 10.5 -1.5 31 7.0 SW 15 17 8 9 1016.3 1015.9 0.0
17/05:00am 16.0 10.6 -1.5 30 7.2 SW 17 20 9 11 1016.1 1015.7 0.0
17/04:30am 15.1 9.6 -1.9 31 6.9 SW 17 20 9 11 1015.8 1015.4 0.0
17/04:00am 14.8 10.9 -1.7 32 6.7 S 9 9 5 5 1015.6 1015.2 0.0
17/03:30am 15.6 11.3 -1.9 30 7.2 S 11 13 6 7 1015.5 1015.1 0.0
17/03:00am 16.2 12.3 -1.8 29 7.4 S 9 11 5 6 1015.7 1015.3 0.0
17/02:30am 16.5 12.6 -1.6 29 7.5 S 9 11 5 6 1016.0 1015.6 0.0
17/02:00am 16.8 12.5 -1.8 28 7.7 S 11 11 6 6 1016.3 1015.9 0.0
17/01:30am 18.4 14.1 -2.0 25 8.6 S 11 13 6 7 1016.6 1016.2 0.0
17/01:00am 20.0 15.3 -1.7 23 9.3 S 13 15 7 8 1017.0 1016.6 0.0
17/12:30am 20.4 15.4 -1.4 23 9.4 S 15 17 8 9 1017.1 1016.7 0.0
17/12:00am 19.8 15.5 -1.3 24 9.1 SSW 11 13 6 7 1017.1 1016.7 0.0
 
Date/Time
EDT
Temp
°C
App
Temp
°C
Dew
Point
°C
Rel
Hum
%
Delta-T
°C
Wind Press
QNH
hPa
Press
MSL
hPa
Rain since
9am
mm
Dir  Spd
km/h
Gust
km/h
Spd
kts
Gust
kts
16/11:30pm 20.7 16.1 -1.1 23 9.5 SSW 13 15 7 8 1017.2 1016.8 0.0
16/11:00pm 22.1 16.8 -0.6 22 10.1 SSW 17 19 9 10 1017.3 1016.9 0.0
16/10:30pm 20.0 15.8 -1.2 24 9.2 SSE 11 13 6 7 1017.1 1016.7 0.0
16/10:00pm 20.3 16.0 -1.5 23 9.4 SSE 11 13 6 7 1016.9 1016.5 0.0
16/09:30pm 22.1 17.9 -1.2 21 10.3 S 11 13 6 7 1016.6 1016.2 0.0
16/09:00pm 23.9 19.5 -2.6 17 11.5 S 11 13 6 7 1016.3 1015.9 0.0
16/08:30pm 25.9 21.8 -2.7 15 12.7 S 9 11 5 6 1016.3 1015.9 0.0
16/08:00pm 27.5 22.7 -2.3 14 13.4 SSW 13 19 7 10 1016.0 1015.6 0.0
16/07:30pm 28.8 24.0 -2.3 13 14.2 SSW 13 19 7 10 1015.8 1015.4 0.0
16/07:00pm 29.4 23.2 -2.9 12 14.6 SSW 20 32 11 17 1015.5 1015.1 0.0
16/06:30pm 30.3 24.3 -3.4 11 15.3 SW 19 28 10 15 1015.3 1014.9 0.0
16/06:00pm 30.5 24.9 -3.3 11 15.3 SSE 17 26 9 14 1015.2 1014.8 0.0
16/05:30pm 30.8 25.6 -3.0 11 15.5 SSW 15 33 8 18 1015.1 1014.6 0.0
16/05:00pm 31.1 25.1 -1.6 12 15.4 SSW 20 28 11 15 1015.0 1014.5 0.0
16/04:30pm 31.0 25.3 -0.6 13 15.1 SSW 19 35 10 19 1015.2 1014.8 0.0
16/04:00pm 30.9 25.1 -1.8 12 15.3 SSW 19 30 10 16 1015.7 1015.3 0.0
16/03:30pm 30.8 25.5 -0.8 13 15.0 SSW 17 35 9 19 1016.0 1015.6 0.0
16/03:00pm 30.9 25.2 -0.7 13 15.0 SSW 19 33 10 18 1016.4 1016.0 0.0
16/02:30pm 30.9 25.0 -0.7 13 15.1 SW 20 35 11 19 1016.8 1016.4 0.0
16/02:00pm 30.8 26.8 0.2 14 14.8 SSW 11 24 6 13 1017.3 1016.9 0.0
16/01:30pm 29.2 24.7 -0.1 15 13.9 SW 13 22 7 12 1017.8 1017.4 0.0
16/01:00pm 29.2 24.7 -0.1 15 13.9 SSW 13 24 7 13 1018.1 1017.7 0.0
16/12:30pm 28.4 24.0 0.2 16 13.4 SSW 13 24 7 13 1018.6 1018.2 0.0
16/12:00pm 28.0 23.7 0.7 17 13.0 S 13 26 7 14 1018.7 1018.3 0.0
16/11:30am 27.4 24.1 2.5 20 12.3 SSE 9 19 5 10 1018.9 1018.5 0.0
16/11:00am 27.1 23.6 1.5 19 12.3 E 9 20 5 11 1019.1 1018.7 0.0
16/10:30am 26.2 22.1 2.2 21 11.6 ESE 13 19 7 10 1019.2 1018.8 0.0
16/10:00am 25.2 21.1 2.0 22 11.1 SE 13 19 7 10 1019.2 1018.8 0.0
16/09:30am 23.9 19.4 2.1 24 10.4 ESE 15 19 8 10 1019.2 1018.8 0.0
16/09:00am 22.8 18.8 2.8 27 9.6 ESE 13 17 7 9 1019.2 1018.8 0.0
16/08:30am 21.7 18.6 3.4 30 8.8 SE 9 15 5 8 1019.1 1018.7 0.0
16/08:00am 19.8 15.5 3.1 33 7.8 SE 15 20 8 11 1018.7 1018.3 0.0
16/07:30am 18.6 14.4 3.6 37 7.1 SSE 15 19 8 10 1018.4 1018.0 0.0
16/07:00am 16.6 13.7 4.9 46 5.6 SSE 9 11 5 6 1018.2 1017.8 0.0
16/06:30am 13.8 11.4 4.1 52 4.4 S 6 9 3 5 1018.0 1017.6 0.0
16/06:00am 14.9 11.7 4.9 51 4.7 SSE 11 13 6 7 1017.7 1017.3 0.0
16/05:30am 14.0 10.3 4.3 52 4.5 S 13 13 7 7 1017.5 1017.1 0.0
16/05:00am 14.3 10.5 3.7 49 4.8 S 13 13 7 7 1017.4 1017.0 0.0
16/04:30am 14.8 11.3 3.6 47 5.1 S 11 11 6 6 1017.6 1017.2 0.0
16/04:00am 15.2 11.7 3.4 45 5.4 SSW 11 11 6 6 1017.7 1017.3 0.0
16/03:30am 15.8 12.6 3.3 43 5.7 SSW 9 11 5 6 1017.7 1017.3 0.0
16/03:00am 16.5 13.8 3.6 42 6.0 SSW 7 9 4 5 1017.8 1017.4 0.0
16/02:30am 17.5 14.4 3.4 39 6.6 SW 9 9 5 5 1018.0 1017.6 0.0
16/02:00am 18.3 15.0 2.6 35 7.2 SSW 9 13 5 7 1018.2 1017.8 0.0
16/01:30am 19.4 15.0 2.7 33 7.8 SSW 15 17 8 9 1018.5 1018.1 0.0
16/01:00am 20.0 16.1 3.3 33 7.9 SSW 13 15 7 8 1018.8 1018.4 0.0
16/12:30am 20.8 16.9 3.5 32 8.3 SSW 13 15 7 8 1019.2 1018.8 0.0
16/12:00am 21.6 17.4 3.8 31 8.6 SSW 15 20 8 11 1019.2 1018.8 0.0
 
Date/Time
EDT
Temp
°C
App
Temp
°C
Dew
Point
°C
Rel
Hum
%
Delta-T
°C
Wind Press
QNH
hPa
Press
MSL
hPa
Rain since
9am
mm
Dir  Spd
km/h
Gust
km/h
Spd
kts
Gust
kts
15/11:30pm 22.1 18.1 5.1 33 8.5 SSW 15 19 8 10 1019.3 1018.9 0.0
15/11:00pm 22.8 19.3 5.3 32 8.8 SSW 13 17 7 9 1019.4 1019.0 0.0
15/10:30pm 23.7 19.5 5.6 31 9.2 SSW 17 22 9 12 1019.3 1018.9 0.0
15/10:00pm 24.7 19.2 6.0 30 9.6 SSW 24 32 13 17 1019.1 1018.7 0.0
15/09:30pm 24.5 21.5 7.6 34 8.9 SSW 13 20 7 11 1018.6 1018.2 0.0
15/09:00pm 24.9 23.0 7.5 33 9.2 S 7 9 4 5 1018.3 1017.9 0.0
15/08:30pm 26.2 23.6 7.7 31 9.9 S 11 17 6 9 1018.1 1017.7 0.0
15/08:00pm 27.1 23.3 7.5 29 10.5 SSW 17 26 9 14 1018.0 1017.6 0.0
15/07:30pm 28.3 24.1 7.5 27 11.2 SSW 19 28 10 15 1017.7 1017.3 0.0
15/07:00pm 28.8 24.0 7.4 26 11.5 SSW 22 32 12 17 1017.4 1017.0 0.0
15/06:30pm 29.7 25.3 7.6 25 12.0 SSW 20 33 11 18 1017.2 1016.8 0.0
15/06:00pm 30.1 25.4 7.9 25 12.2 SSW 22 33 12 18 1017.1 1016.7 0.0
15/05:30pm 30.0 25.2 7.2 24 12.4 SSW 22 33 12 18 1016.9 1016.5 0.0
15/05:00pm 31.3 27.5 7.7 23 13.0 SW 17 30 9 16 1016.9 1016.5 0.0
15/04:30pm 30.7 26.8 7.2 23 12.8 SSW 17 28 9 15 1017.2 1016.8 0.0
15/04:00pm 30.5 26.0 7.0 23 12.7 SSW 20 33 11 18 1017.2 1016.8 0.0
15/03:30pm 29.6 25.5 6.3 23 12.4 S 17 28 9 15 1017.4 1017.0 0.0
15/03:00pm 29.6 25.3 6.9 24 12.2 S 19 30 10 16 1018.0 1017.6 0.0
15/02:30pm 29.1 26.0 7.1 25 11.8 SE 13 28 7 15 1018.3 1017.9 0.0
15/02:00pm 28.8 26.1 7.4 26 11.5 SSE 11 26 6 14 1018.7 1018.3 0.0
15/01:30pm 28.4 25.0 7.6 27 11.3 S 15 24 8 13 1019.2 1018.8 0.0
15/01:00pm 27.3 23.2 7.7 29 10.5 S 19 28 10 15 1019.6 1019.2 0.0
15/12:30pm 26.7 22.5 8.2 31 10.0 SSE 20 32 11 17 1019.9 1019.5 0.0
15/12:00pm 26.4 22.4 8.4 32 9.7 SSE 19 28 10 15 1020.2 1019.8 0.0
15/11:30am 25.8 21.2 8.3 33 9.4 SSE 22 33 12 18 1020.4 1020.0 0.0
15/11:00am 25.0 20.8 8.1 34 9.0 SSE 20 30 11 16 1020.6 1020.2 0.0
15/10:30am 24.1 19.5 8.1 36 8.5 SSE 22 32 12 17 1020.6 1020.2 0.0
15/10:00am 22.8 18.1 7.8 38 7.9 SSE 22 32 12 17 1020.8 1020.4 0.0
15/09:30am 22.0 17.0 8.2 41 7.3 S 24 33 13 18 1020.7 1020.3 0.0
15/09:00am 21.4 16.6 8.7 44 6.7 S 24 35 13 19 1020.5 1020.1 0.0
15/08:30am 20.7 16.9 9.0 47 6.2 S 19 28 10 15 1020.2 1019.8 0.0
15/08:00am 20.3 15.4 8.3 46 6.3 S 24 32 13 17 1019.6 1019.2 0.0
15/07:30am 19.7 16.6 8.7 49 5.8 S 15 24 8 13 1019.4 1019.0 0.0
15/07:00am 19.1 15.1 8.1 49 5.7 S 19 26 10 14 1019.2 1018.8 0.0
15/06:30am 18.6 15.1 8.6 52 5.2 S 17 24 9 13 1018.8 1018.4 0.0
15/06:00am 18.9 14.9 8.3 50 5.5 S 19 26 10 14 1018.2 1017.8 0.0
15/05:30am 19.4 15.4 8.4 49 5.7 S 19 26 10 14 1017.6 1017.2 0.0
15/05:00am 19.6 15.7 8.6 49 5.8 S 19 26 10 14 1017.3 1016.9 0.0
15/04:30am 20.1 16.2 8.8 48 6.0 S 19 24 10 13 1016.9 1016.5 0.0
15/04:00am 20.2 16.3 8.5 47 6.1 S 19 24 10 13 1016.7 1016.3 0.0
15/03:30am 20.7 16.7 8.4 45 6.5 S 19 28 10 15 1016.3 1015.9 0.0
15/03:00am 20.4 17.5 9.6 50 5.8 S 15 17 8 9 1016.2 1015.8 0.0
15/02:30am 21.2 18.8 10.1 49 6.0 S 13 17 7 9 1016.3 1015.9 0.0
15/02:00am 22.3 19.3 10.8 48 6.4 S 17 20 9 11 1016.4 1016.0 0.0
15/01:30am 23.3 19.8 11.0 46 6.9 S 20 28 11 15 1016.4 1016.0 0.0
15/01:00am 23.2 20.7 12.2 50 6.3 SSW 17 24 9 13 1016.6 1016.2 0.0
15/12:30am 22.8 21.3 14.1 58 5.1 SSW 15 17 8 9 1016.6 1016.2 0.0
15/12:00am 23.1 22.1 14.7 59 5.0 SSW 13 17 7 9 1016.7 1016.3 0.0
 
Date/Time
EDT
Temp
°C
App
Temp
°C
Dew
Point
°C
Rel
Hum
%
Delta-T
°C
Wind Press
QNH
hPa
Press
MSL
hPa
Rain since
9am
mm
Dir  Spd
km/h
Gust
km/h
Spd
kts
Gust
kts
14/11:30pm 23.8 22.9 14.8 57 5.4 SSW 13 17 7 9 1016.6 1016.2 0.0
14/11:00pm 24.5 23.3 15.1 55 5.6 SSW 15 19 8 10 1016.6 1016.2 0.0
14/10:30pm 25.3 23.9 15.6 55 5.9 SSW 17 22 9 12 1016.5 1016.1 0.0
14/10:00pm 25.8 25.1 15.5 53 6.3 SSW 13 19 7 10 1016.0 1015.6 0.0
14/09:30pm 26.4 25.1 14.8 49 7.0 SSW 15 20 8 11 1015.5 1015.1 0.0
14/09:00pm 27.1 25.8 13.8 44 7.9 S 13 17 7 9 1015.0 1014.5 0.0
14/08:30pm 27.9 25.7 13.4 40 8.6 SSW 17 26 9 14 1014.6 1014.1 0.0
14/08:00pm 28.8 25.6 11.4 34 10.0 SSW 19 24 10 13 1014.2 1013.7 0.0
14/07:30pm 29.9 26.0 10.9 31 10.9 SSW 22 32 12 17 1013.8 1013.3 0.0
14/07:00pm 30.9 26.9 10.3 28 11.8 SSW 22 30 12 16 1013.5 1013.0 0.0
14/06:30pm 31.8 28.7 11.6 29 11.9 SW 19 28 10 15 1013.2 1012.7 0.0
14/06:00pm 31.2 27.9 11.6 30 11.5 SSW 20 33 11 18 1013.1 1012.6 0.0
14/05:30pm 31.6 28.6 11.9 30 11.6 WSW 19 33 10 18 1013.2 1012.7 0.0
14/05:00pm 30.7 29.8 12.6 33 10.7 SSW 9 20 5 11 1013.3 1012.8 0.0
14/04:30pm 30.9 28.0 12.8 33 10.8 SW 20 28 11 15 1013.4 1012.9 0.0
14/04:00pm 31.0 28.8 13.3 34 10.6 S 17 20 9 11 1013.5 1013.0 0.0
14/03:30pm 30.8 29.9 12.7 33 10.8 WNW 9 17 5 9 1013.6 1013.1 0.0
14/03:00pm 31.3 30.0 13.6 34 10.7 SSW 13 24 7 13 1014.1 1013.6 0.0
14/02:30pm 30.8 29.3 13.1 34 10.6 SW 13 19 7 10 1014.2 1013.7 0.0

Other Formats:

Comma delimited format used in spreadsheet applications
http://www.bom.gov.au/fwo/IDN60801/IDN60801.95695.axf

JavaScript Object Notation format (JSON) in row-major order
http://www.bom.gov.au/fwo/IDN60801/IDN60801.95695.json